Sideropolis, Brazil
Current Conditions -  °F | °C
As of 3:00 PM on Friday 31 Oct 2014 (Local Time) from SBCM Reporting Station
Broken Clouds Broken Clouds  
Wind Chill: 79°   Ceiling: 3000
Heat Index: 81°   Visibility: 6mi
Dew Point: 66°   Wind: 9mph
Humidity: 65%   Direction: 170°S
Pressure: 29.85"   Gusts: NA
Location:  28.6°S, 49.42°W
Report Text: SBCM 311700Z 17008KT 9999 BKN030 26/19 Q1011
Loading
Personal Weather Stations






























Interactive Weather Map
Tropical Storm Tracking
New forecast layout! Learn more

10-Day Weather Forecast

Advertisements
Track Severe Weather on mobile